Terminal Aerodrome Forecast
Issued by NWS

Current Version | Previous Version | Graphics & Text | Print | Product List | Glossary On
Versions: 1 2 3 4 5 6 7 8 9 10 11 12 13 14 15 16 17 18 19 20 21 22 23 24 25
000
FTUS41 KRNK 191722
TAFLWB
TAF
KLWB 191722Z 1918/2018 25005KT P6SM SCT050
     FM192100 VRB03KT P6SM BKN050
     FM200900 00000KT 1/4SM FG BKN001
     FM201200 00000KT 2SM BR SCT005 BKN015
     FM201400 VRB03KT P6SM BKN030=

USA.gov is the U.S. government's official web portal to all federal, state and local government web resources and services.